Time;durP1;ratioP1;P1;durP2;ratioP2;P2;SDS_P1;SDS_P2;PMS_P1;PMS_P2;Temp;Humidity;BMP_temperature;BMP_pressure;BME280_temperature;BME280_humidity;BME280_pressure;Samples;Min_cycle;Max_cycle;Signal;HPM_P1;HPM_P2
2023/12/15 00:00:13;;;;;;;16.08;8.73;;;;;;;;;;4953187;29;20043;-81
2023/12/15 00:02:45;;;;;;;18.38;9.15;;;;;;;;;;4953066;29;20098;-83
2023/12/15 00:05:15;;;;;;;18.00;8.82;;;;;;;;;;4937199;29;20039;-83
2023/12/15 00:07:41;;;;;;;13.88;7.68;;;;;;;;;;4937189;29;20110;-80
2023/12/15 00:10:12;;;;;;;16.90;8.45;;;;;;;;;;4936223;29;20046;-81
2023/12/15 00:12:42;;;;;;;17.42;8.63;;;;;;;;;;4952930;29;20058;-82
2023/12/15 00:15:09;;;;;;;17.42;8.55;;;;;;;;;;4936574;29;20038;-83
2023/12/15 00:17:34;;;;;;;14.73;7.75;;;;;;;;;;4951998;29;20053;-80
2023/12/15 00:20:00;;;;;;;16.65;7.93;;;;;;;;;;4936343;29;20035;-81
2023/12/15 00:22:26;;;;;;;14.00;7.38;;;;;;;;;;4969304;28;20035;-81
2023/12/15 00:24:52;;;;;;;15.20;7.32;;;;;;;;;;4951724;29;20051;-80
2023/12/15 00:27:18;;;;;;;14.75;7.72;;;;;;;;;;4952518;29;20031;-82
2023/12/15 00:29:43;;;;;;;12.77;6.97;;;;;;;;;;4954682;29;20042;-81
2023/12/15 00:32:09;;;;;;;13.65;6.95;;;;;;;;;;4937652;29;20063;-82
2023/12/15 00:34:35;;;;;;;14.10;6.80;;;;;;;;;;4920863;29;20059;-82
2023/12/15 00:37:01;;;;;;;16.73;6.53;;;;;;;;;;4935765;29;20031;-81
2023/12/15 00:39:27;;;;;;;9.82;5.20;;;;;;;;;;4937278;29;20032;-81
2023/12/15 00:41:53;;;;;;;11.52;5.95;;;;;;;;;;4943278;29;20094;-81
2023/12/15 00:44:19;;;;;;;8.98;5.38;;;;;;;;;;4960888;29;20042;-82
2023/12/15 00:46:45;;;;;;;7.75;4.32;;;;;;;;;;4956716;29;20099;-79
2023/12/15 00:49:11;;;;;;;10.45;5.20;;;;;;;;;;4941963;29;20043;-82
2023/12/15 00:51:36;;;;;;;10.82;4.63;;;;;;;;;;4941880;29;20035;-81
2023/12/15 00:54:02;;;;;;;9.52;4.97;;;;;;;;;;4941747;29;20036;-81
2023/12/15 00:56:28;;;;;;;11.05;5.40;;;;;;;;;;4953431;29;20129;-82
2023/12/15 00:58:54;;;;;;;9.52;4.82;;;;;;;;;;4946785;29;20039;-80
2023/12/15 01:01:20;;;;;;;10.18;5.25;;;;;;;;;;4932123;29;20053;-81
2023/12/15 01:03:46;;;;;;;10.85;5.55;;;;;;;;;;4929666;29;20031;-80
2023/12/15 01:06:12;;;;;;;10.32;5.10;;;;;;;;;;4945079;29;20037;-80
2023/12/15 01:08:41;;;;;;;;;;;;;;;;;;4945328;29;20066;-81
2023/12/15 01:11:08;;;;;;;11.13;5.43;;;;;;;;;;4975863;28;19921;-82
2023/12/15 01:13:35;;;;;;;11.02;5.72;;;;;;;;;;4929433;29;20132;-81
2023/12/15 01:16:04;;;;;;;12.80;6.10;;;;;;;;;;4929158;29;20035;-81
2023/12/15 01:18:30;;;;;;;11.52;5.85;;;;;;;;;;4939853;29;20036;-81
2023/12/15 01:20:55;;;;;;;11.23;5.53;;;;;;;;;;4940077;29;20035;-80
2023/12/15 01:23:22;;;;;;;11.82;5.80;;;;;;;;;;4955234;29;20043;-80
2023/12/15 01:25:48;;;;;;;11.30;5.90;;;;;;;;;;4941660;29;20031;-80
2023/12/15 01:28:14;;;;;;;13.25;6.03;;;;;;;;;;4958839;29;20041;-79
2023/12/15 01:30:40;;;;;;;13.80;6.18;;;;;;;;;;4929244;29;20134;-81
2023/12/15 01:33:06;;;;;;;12.65;6.80;;;;;;;;;;4929905;29;20077;-82
2023/12/15 01:35:32;;;;;;;17.08;7.88;;;;;;;;;;4962418;29;20035;-81
2023/12/15 01:37:57;;;;;;;16.13;7.55;;;;;;;;;;4931175;29;20039;-82
2023/12/15 01:40:24;;;;;;;14.70;7.72;;;;;;;;;;4927999;29;20038;-80
2023/12/15 01:42:49;;;;;;;14.57;7.85;;;;;;;;;;4943934;29;20501;-81
2023/12/15 01:45:16;;;;;;;16.83;7.80;;;;;;;;;;4944896;29;20040;-82
2023/12/15 01:47:43;;;;;;;15.60;8.18;;;;;;;;;;4929020;29;20039;-81
2023/12/15 01:50:09;;;;;;;13.57;7.45;;;;;;;;;;4928552;29;20031;-81
2023/12/15 01:52:35;;;;;;;14.48;7.45;;;;;;;;;;4928907;29;20059;-81
2023/12/15 01:55:02;;;;;;;13.73;7.50;;;;;;;;;;4929720;29;20519;-82
2023/12/15 01:57:28;;;;;;;14.55;7.68;;;;;;;;;;4931169;29;20035;-81
2023/12/15 01:59:57;;;;;;;12.23;6.43;;;;;;;;;;4930575;29;20066;-80
2023/12/15 02:02:23;;;;;;;15.07;7.85;;;;;;;;;;4931349;29;20098;-81
2023/12/15 02:04:49;;;;;;;12.93;7.10;;;;;;;;;;4930034;29;20035;-80
2023/12/15 02:07:15;;;;;;;11.68;6.60;;;;;;;;;;4930325;29;20031;-81
2023/12/15 02:09:42;;;;;;;14.50;8.00;;;;;;;;;;4946159;29;20070;-80
2023/12/15 02:12:09;;;;;;;17.95;8.38;;;;;;;;;;4929875;29;20031;-79
2023/12/15 02:14:35;;;;;;;16.60;7.93;;;;;;;;;;4913734;29;20028;-80
2023/12/15 02:17:01;;;;;;;16.25;7.82;;;;;;;;;;4929552;29;20050;-80
2023/12/15 02:19:29;;;;;;;17.73;8.88;;;;;;;;;;4948670;29;20063;-82
2023/12/15 02:21:56;;;;;;;14.95;8.23;;;;;;;;;;4932964;28;20031;-82
2023/12/15 02:24:22;;;;;;;18.17;8.40;;;;;;;;;;4949650;29;20047;-80
2023/12/15 02:26:48;;;;;;;23.83;9.50;;;;;;;;;;4950427;29;20070;-80
2023/12/15 02:29:14;;;;;;;15.82;8.23;;;;;;;;;;4950507;29;20031;-81
2023/12/15 02:31:40;;;;;;;17.88;8.77;;;;;;;;;;4947270;29;20035;-81
2023/12/15 02:34:06;;;;;;;15.52;9.20;;;;;;;;;;4916914;29;20066;-82
2023/12/15 02:36:32;;;;;;;16.45;8.15;;;;;;;;;;4931370;29;20031;-82
2023/12/15 02:38:58;;;;;;;18.63;8.90;;;;;;;;;;4933576;29;20034;-81
2023/12/15 02:41:24;;;;;;;19.40;9.23;;;;;;;;;;4969830;29;20028;-81
2023/12/15 02:43:49;;;;;;;17.88;8.25;;;;;;;;;;4932079;29;20059;-81
2023/12/15 02:46:15;;;;;;;19.77;9.15;;;;;;;;;;4913824;29;20039;-82
2023/12/15 02:48:41;;;;;;;19.17;8.38;;;;;;;;;;4940798;29;20050;-82
2023/12/15 02:51:07;;;;;;;17.50;8.15;;;;;;;;;;4932753;29;20031;-81
2023/12/15 02:53:37;;;;;;;16.98;8.10;;;;;;;;;;4932248;29;20066;-81
2023/12/15 02:56:03;;;;;;;18.35;8.60;;;;;;;;;;4933379;29;20484;-81
2023/12/15 02:58:29;;;;;;;16.15;8.30;;;;;;;;;;4934136;29;20042;-81
2023/12/15 03:00:55;;;;;;;19.77;8.80;;;;;;;;;;4946285;29;20043;-81
2023/12/15 03:03:21;;;;;;;17.90;7.80;;;;;;;;;;4926810;29;20294;-80
2023/12/15 03:05:46;;;;;;;17.25;7.80;;;;;;;;;;4928701;29;20050;-81
2023/12/15 03:08:12;;;;;;;16.55;8.07;;;;;;;;;;4929477;29;20031;-81
2023/12/15 03:10:38;;;;;;;14.50;7.88;;;;;;;;;;4929972;29;20040;-81
2023/12/15 03:13:06;;;;;;;15.07;7.68;;;;;;;;;;4930306;29;20028;-81
2023/12/15 03:15:31;;;;;;;16.35;7.65;;;;;;;;;;4928465;29;20555;-79
2023/12/15 03:17:57;;;;;;;16.98;8.48;;;;;;;;;;4929137;29;20122;-81
2023/12/15 03:20:23;;;;;;;16.33;7.32;;;;;;;;;;4928298;29;20039;-81
2023/12/15 03:22:50;;;;;;;16.23;7.53;;;;;;;;;;4963768;29;20058;-80
2023/12/15 03:25:16;;;;;;;17.70;8.23;;;;;;;;;;4950923;29;20051;-81
2023/12/15 03:27:42;;;;;;;18.23;8.13;;;;;;;;;;4950477;29;20031;-81
2023/12/15 03:30:08;;;;;;;15.40;7.45;;;;;;;;;;4934886;29;20039;-80
2023/12/15 03:32:34;;;;;;;16.58;8.70;;;;;;;;;;4966879;29;20031;-80
2023/12/15 03:35:00;;;;;;;20.20;9.32;;;;;;;;;;4951727;29;20125;-82
2023/12/15 03:37:26;;;;;;;15.38;8.13;;;;;;;;;;4969619;29;20031;-82
2023/12/15 03:39:53;;;;;;;17.83;7.88;;;;;;;;;;4938671;29;20035;-81
2023/12/15 03:42:18;;;;;;;16.10;7.97;;;;;;;;;;4937202;29;20038;-81
2023/12/15 03:44:44;;;;;;;17.38;8.27;;;;;;;;;;4940914;29;20071;-80
2023/12/15 03:47:10;;;;;;;15.23;7.70;;;;;;;;;;4943815;29;20054;-82
2023/12/15 03:49:36;;;;;;;16.13;7.43;;;;;;;;;;4942065;29;20039;-80
2023/12/15 03:52:02;;;;;;;16.70;7.90;;;;;;;;;;4934371;29;20452;-80
2023/12/15 03:54:28;;;;;;;19.08;8.18;;;;;;;;;;4950883;29;20031;-82
2023/12/15 03:56:57;;;;;;;16.98;8.13;;;;;;;;;;4951214;29;20035;-82
2023/12/15 03:59:24;;;;;;;21.15;8.07;;;;;;;;;;4934313;29;20031;-82
2023/12/15 04:01:50;;;;;;;18.98;8.80;;;;;;;;;;4937310;29;20400;-82
2023/12/15 04:04:20;;;;;;;18.15;8.68;;;;;;;;;;4968793;29;20050;-81
2023/12/15 04:06:46;;;;;;;17.35;8.43;;;;;;;;;;4937698;29;20047;-80
2023/12/15 04:09:12;;;;;;;19.95;9.55;;;;;;;;;;4968369;29;20039;-79
2023/12/15 04:11:41;;;;;;;21.65;8.88;;;;;;;;;;4952075;29;20058;-81
2023/12/15 04:14:09;;;;;;;20.60;9.20;;;;;;;;;;4953858;29;20492;-80
2023/12/15 04:16:34;;;;;;;16.35;8.38;;;;;;;;;;4936046;29;20496;-81
2023/12/15 04:19:00;;;;;;;17.30;8.38;;;;;;;;;;4936396;29;20063;-82
2023/12/15 04:21:27;;;;;;;18.55;9.25;;;;;;;;;;4950330;29;20039;-80
2023/12/15 04:23:54;;;;;;;19.27;9.48;;;;;;;;;;4933232;29;20086;-81
2023/12/15 04:26:20;;;;;;;21.73;8.80;;;;;;;;;;4932194;29;20515;-81
2023/12/15 04:28:46;;;;;;;18.17;8.75;;;;;;;;;;4932784;29;20067;-81
2023/12/15 04:31:14;;;;;;;17.83;8.27;;;;;;;;;;4934397;29;20060;-82
2023/12/15 04:33:40;;;;;;;20.83;9.75;;;;;;;;;;4949861;29;20042;-82
2023/12/15 04:36:08;;;;;;;19.83;9.65;;;;;;;;;;4930994;29;20042;-81
2023/12/15 04:38:34;;;;;;;18.92;9.30;;;;;;;;;;4930680;29;20095;-79
2023/12/15 04:41:00;;;;;;;22.88;10.15;;;;;;;;;;4929174;29;20036;-81
2023/12/15 04:43:26;;;;;;;23.50;9.38;;;;;;;;;;4929644;29;20032;-80
2023/12/15 04:45:52;;;;;;;18.48;8.77;;;;;;;;;;4962047;28;20047;-79
2023/12/15 04:48:18;;;;;;;20.38;8.95;;;;;;;;;;4956003;29;20043;-80
2023/12/15 04:50:49;;;;;;;21.40;9.38;;;;;;;;;;4929927;29;20046;-80
2023/12/15 04:53:15;;;;;;;22.73;9.88;;;;;;;;;;4932264;29;20082;-79
2023/12/15 04:55:40;;;;;;;22.30;10.10;;;;;;;;;;4932512;29;20031;-81
2023/12/15 04:58:07;;;;;;;17.50;9.48;;;;;;;;;;4946870;29;20031;-79
2023/12/15 05:00:33;;;;;;;22.98;9.90;;;;;;;;;;4945241;29;20110;-81
2023/12/15 05:03:00;;;;;;;20.02;9.43;;;;;;;;;;4928141;29;20061;-80
2023/12/15 05:05:26;;;;;;;28.15;10.30;;;;;;;;;;4959622;29;20373;-80
2023/12/15 05:07:55;;;;;;;23.80;10.13;;;;;;;;;;4944934;29;20035;-81
2023/12/15 05:10:21;;;;;;;20.40;9.43;;;;;;;;;;4925278;29;20055;-81
2023/12/15 05:12:47;;;;;;;23.55;9.82;;;;;;;;;;4925885;29;20043;-82
2023/12/15 05:15:13;;;;;;;22.30;9.40;;;;;;;;;;4927849;29;20039;-80
2023/12/15 05:17:39;;;;;;;23.00;10.35;;;;;;;;;;4928702;29;20544;-81
2023/12/15 05:20:05;;;;;;;22.58;10.40;;;;;;;;;;4928665;29;20044;-82
2023/12/15 05:22:32;;;;;;;21.50;10.27;;;;;;;;;;4931177;29;20040;-79
2023/12/15 05:24:59;;;;;;;20.52;8.68;;;;;;;;;;4948172;29;20040;-79
2023/12/15 05:27:29;;;;;;;20.27;9.75;;;;;;;;;;4932186;29;20107;-81
2023/12/15 05:29:55;;;;;;;21.98;10.25;;;;;;;;;;4948160;29;20031;-79
2023/12/15 05:32:22;;;;;;;21.45;9.45;;;;;;;;;;4932677;29;20035;-83
2023/12/15 05:34:49;;;;;;;24.88;10.07;;;;;;;;;;4945693;29;20419;-79
2023/12/15 05:37:15;;;;;;;22.33;10.63;;;;;;;;;;4931871;29;20124;-81
2023/12/15 05:39:42;;;;;;;19.55;9.07;;;;;;;;;;4966855;29;20035;-78
2023/12/15 05:42:08;;;;;;;24.60;10.65;;;;;;;;;;4967874;29;20039;-82
2023/12/15 05:44:33;;;;;;;24.55;10.73;;;;;;;;;;4950763;29;20031;-81
2023/12/15 05:46:59;;;;;;;18.98;9.07;;;;;;;;;;4969604;29;20027;-79
2023/12/15 05:49:29;;;;;;;22.45;9.73;;;;;;;;;;4955004;29;20039;-82
2023/12/15 05:51:55;;;;;;;;;;;;;;;;;;4956091;29;20041;-82
2023/12/15 05:54:21;;;;;;;19.90;9.40;;;;;;;;;;4939475;29;20295;-81
2023/12/15 05:56:49;;;;;;;;;;;;;;;;;;4954977;29;20053;-83
2023/12/15 05:59:16;;;;;;;15.65;8.10;;;;;;;;;;4953973;29;19918;-81
2023/12/15 06:01:43;;;;;;;22.40;9.73;;;;;;;;;;4971643;29;20039;-82
2023/12/15 06:04:10;;;;;;;22.75;9.88;;;;;;;;;;4952731;29;20571;-81
2023/12/15 06:06:39;;;;;;;21.50;10.50;;;;;;;;;;4948771;29;20062;-79
2023/12/15 06:09:09;;;;;;;20.58;10.18;;;;;;;;;;4933813;29;20122;-81
2023/12/15 06:11:43;;;;;;;28.35;10.60;;;;;;;;;;4932226;29;20051;-81
2023/12/15 06:14:10;;;;;;;23.08;10.50;;;;;;;;;;4963169;29;20027;-80
2023/12/15 06:16:35;;;;;;;24.58;10.80;;;;;;;;;;4926665;29;20032;-81
2023/12/15 06:19:02;;;;;;;24.48;11.32;;;;;;;;;;4927721;29;20103;-81
2023/12/15 06:21:29;;;;;;;24.58;11.23;;;;;;;;;;4943917;29;20063;-82
2023/12/15 06:23:55;;;;;;;22.23;9.98;;;;;;;;;;4946305;29;20049;-81
2023/12/15 06:26:24;;;;;;;23.13;10.18;;;;;;;;;;4925343;29;20050;-81
2023/12/15 06:28:56;;;;;;;19.67;9.68;;;;;;;;;;4941302;29;20049;-81
2023/12/15 06:31:25;;;;;;;23.92;10.63;;;;;;;;;;4926177;29;20038;-80
2023/12/15 06:33:51;;;;;;;26.23;11.30;;;;;;;;;;4936614;29;20034;-81
2023/12/15 06:36:18;;;;;;;22.92;9.60;;;;;;;;;;4927916;29;20469;-79
2023/12/15 06:38:45;;;;;;;23.85;11.00;;;;;;;;;;4925994;29;20085;-82
2023/12/15 06:41:11;;;;;;;25.88;10.80;;;;;;;;;;4926073;29;20040;-82
2023/12/15 06:43:45;;;;;;;24.60;9.63;;;;;;;;;;4940473;29;20595;-80
2023/12/15 06:46:11;;;;;;;19.92;10.07;;;;;;;;;;4922997;29;20074;-80
2023/12/15 06:48:37;;;;;;;22.02;10.73;;;;;;;;;;4942417;29;20045;-81
2023/12/15 06:51:03;;;;;;;27.70;11.63;;;;;;;;;;4949580;29;20079;-80
2023/12/15 06:53:29;;;;;;;24.05;10.57;;;;;;;;;;4960709;29;20042;-82
2023/12/15 06:55:55;;;;;;;22.63;10.82;;;;;;;;;;4963869;29;20034;-80
2023/12/15 06:58:22;;;;;;;21.55;10.95;;;;;;;;;;4936735;29;20103;-82
2023/12/15 07:00:47;;;;;;;23.75;10.93;;;;;;;;;;4933183;29;20063;-81
2023/12/15 07:03:13;;;;;;;23.92;10.38;;;;;;;;;;4948373;29;20050;-81
2023/12/15 07:05:38;;;;;;;25.70;11.15;;;;;;;;;;4948362;29;20122;-80
2023/12/15 07:08:04;;;;;;;25.58;11.05;;;;;;;;;;4936447;28;20039;-80
2023/12/15 07:10:32;;;;;;;22.92;10.70;;;;;;;;;;4972162;29;20043;-82
2023/12/15 07:12:57;;;;;;;26.67;10.23;;;;;;;;;;4959690;29;20098;-80
2023/12/15 07:15:25;;;;;;;28.77;13.55;;;;;;;;;;4945086;29;20035;-82
2023/12/15 07:17:52;;;;;;;22.67;10.88;;;;;;;;;;4992464;28;20066;-80
2023/12/15 07:20:17;;;;;;;29.00;14.68;;;;;;;;;;4944612;29;20039;-80
2023/12/15 07:22:44;;;;;;;33.28;15.07;;;;;;;;;;4944339;29;20039;-81
2023/12/15 07:25:10;;;;;;;30.38;12.70;;;;;;;;;;4943158;29;20041;-81
2023/12/15 07:27:36;;;;;;;24.23;12.00;;;;;;;;;;4941299;29;20036;-82
2023/12/15 07:30:01;;;;;;;26.40;11.57;;;;;;;;;;4956527;29;20043;-81
2023/12/15 07:32:27;;;;;;;22.85;11.75;;;;;;;;;;4934733;29;20034;-79
2023/12/15 07:34:53;;;;;;;25.50;11.52;;;;;;;;;;4949379;29;20083;-81
2023/12/15 07:37:18;;;;;;;26.35;10.75;;;;;;;;;;4930662;29;20504;-80
2023/12/15 07:39:44;;;;;;;21.55;10.38;;;;;;;;;;4946291;29;20613;-82
2023/12/15 07:42:11;;;;;;;21.98;10.23;;;;;;;;;;4955847;29;20036;-82
2023/12/15 07:44:37;;;;;;;22.20;10.43;;;;;;;;;;4938041;29;20038;-81
2023/12/15 07:47:03;;;;;;;26.65;11.45;;;;;;;;;;4937554;29;20047;-82
2023/12/15 07:49:33;;;;;;;23.42;10.85;;;;;;;;;;4971536;29;20042;-81
2023/12/15 07:51:59;;;;;;;27.77;10.27;;;;;;;;;;4953777;29;20062;-82
2023/12/15 07:54:25;;;;;;;24.90;10.63;;;;;;;;;;4941493;29;20031;-82
2023/12/15 07:56:51;;;;;;;19.88;9.60;;;;;;;;;;4956856;29;20039;-81
2023/12/15 07:59:17;;;;;;;23.63;10.10;;;;;;;;;;4955648;29;20089;-81
2023/12/15 08:01:48;;;;;;;23.73;10.65;;;;;;;;;;4956795;29;20066;-81
2023/12/15 08:04:14;;;;;;;20.95;10.10;;;;;;;;;;4971648;28;20098;-82
2023/12/15 08:06:39;;;;;;;23.65;9.90;;;;;;;;;;4953649;29;20031;-80
2023/12/15 08:09:05;;;;;;;21.83;10.30;;;;;;;;;;4939252;29;20054;-80
2023/12/15 08:11:32;;;;;;;22.98;10.50;;;;;;;;;;4940321;29;20039;-80
2023/12/15 08:13:59;;;;;;;20.55;9.85;;;;;;;;;;4938361;29;20031;-82
2023/12/15 08:16:25;;;;;;;21.05;10.30;;;;;;;;;;4936821;29;20035;-81
2023/12/15 08:18:50;;;;;;;23.30;9.68;;;;;;;;;;4941538;29;20038;-80
2023/12/15 08:21:16;;;;;;;22.75;10.25;;;;;;;;;;4939432;29;20100;-82
2023/12/15 08:23:42;;;;;;;29.80;12.63;;;;;;;;;;4953941;29;20066;-81
2023/12/15 08:26:08;;;;;;;23.98;10.95;;;;;;;;;;4957459;29;20066;-81
2023/12/15 08:28:35;;;;;;;25.25;11.10;;;;;;;;;;4957972;29;20066;-82
2023/12/15 08:31:00;;;;;;;21.35;10.45;;;;;;;;;;4941688;29;20106;-82
2023/12/15 08:33:27;;;;;;;21.77;10.85;;;;;;;;;;4938584;29;20027;-82
2023/12/15 08:35:53;;;;;;;25.05;10.77;;;;;;;;;;4975144;29;20091;-81
2023/12/15 08:38:19;;;;;;;25.50;10.65;;;;;;;;;;4947704;29;20031;-82
2023/12/15 08:40:44;;;;;;;21.65;10.48;;;;;;;;;;4933612;29;20095;-80
2023/12/15 08:43:10;;;;;;;25.35;10.75;;;;;;;;;;4926125;29;20040;-79
2023/12/15 08:45:36;;;;;;;20.40;9.45;;;;;;;;;;4925413;29;20066;-79
2023/12/15 08:48:02;;;;;;;24.27;9.82;;;;;;;;;;4927128;29;20035;-81
2023/12/15 08:50:28;;;;;;;21.83;9.82;;;;;;;;;;4967687;29;20055;-80
2023/12/15 08:52:54;;;;;;;21.15;9.57;;;;;;;;;;4963824;29;20146;-81
2023/12/15 08:55:20;;;;;;;23.13;9.82;;;;;;;;;;4959341;29;20040;-80
2023/12/15 08:57:45;;;;;;;21.48;9.45;;;;;;;;;;4948474;29;20400;-80
2023/12/15 09:00:11;;;;;;;24.48;9.82;;;;;;;;;;4950314;29;20040;-80
2023/12/15 09:02:37;;;;;;;25.92;11.40;;;;;;;;;;4950274;29;20445;-80
2023/12/15 09:05:03;;;;;;;18.85;8.90;;;;;;;;;;4929383;29;20039;-81
2023/12/15 09:07:29;;;;;;;22.10;9.23;;;;;;;;;;4926048;29;20122;-81
2023/12/15 09:09:55;;;;;;;21.30;9.82;;;;;;;;;;4927334;29;20059;-80
2023/12/15 09:12:22;;;;;;;20.17;9.52;;;;;;;;;;4931046;29;20588;-80
2023/12/15 09:14:48;;;;;;;21.00;9.27;;;;;;;;;;4940576;29;20473;-80
2023/12/15 09:17:14;;;;;;;19.23;9.95;;;;;;;;;;4941065;29;20075;-80
2023/12/15 09:19:40;;;;;;;23.27;10.20;;;;;;;;;;4924773;29;20039;-79
2023/12/15 09:22:06;;;;;;;22.48;10.13;;;;;;;;;;4924754;29;20043;-81
2023/12/15 09:24:33;;;;;;;20.40;10.23;;;;;;;;;;4909187;29;20047;-80
2023/12/15 09:26:59;;;;;;;23.30;10.75;;;;;;;;;;4908312;29;20039;-82
2023/12/15 09:29:25;;;;;;;23.98;10.38;;;;;;;;;;4943382;29;20527;-79
2023/12/15 09:31:50;;;;;;;19.75;9.73;;;;;;;;;;4925984;29;20055;-81
2023/12/15 09:34:17;;;;;;;20.52;10.05;;;;;;;;;;4927782;29;20039;-81
2023/12/15 09:36:43;;;;;;;19.98;9.65;;;;;;;;;;4942557;29;20023;-80
2023/12/15 09:39:08;;;;;;;19.48;9.25;;;;;;;;;;4928560;29;20031;-82
2023/12/15 09:41:35;;;;;;;19.98;9.02;;;;;;;;;;4927785;29;20455;-81
2023/12/15 09:44:01;;;;;;;21.98;9.45;;;;;;;;;;4929039;29;20445;-82
2023/12/15 09:46:27;;;;;;;20.48;9.57;;;;;;;;;;4960132;28;20043;-81
2023/12/15 09:48:53;;;;;;;22.83;9.55;;;;;;;;;;4911735;29;20039;-82
2023/12/15 09:51:25;;;;;;;22.85;10.68;;;;;;;;;;4942418;29;20485;-79
2023/12/15 09:53:51;;;;;;;23.45;11.38;;;;;;;;;;4931419;29;20055;-79
2023/12/15 09:56:18;;;;;;;21.10;10.48;;;;;;;;;;4945667;29;20111;-80
2023/12/15 09:58:44;;;;;;;20.50;9.27;;;;;;;;;;4948365;29;20027;-80
2023/12/15 10:01:11;;;;;;;22.20;9.65;;;;;;;;;;4930927;29;20139;-81
2023/12/15 10:03:39;;;;;;;20.25;9.23;;;;;;;;;;4931993;29;20032;-78
2023/12/15 10:06:05;;;;;;;20.15;9.73;;;;;;;;;;4933415;29;20126;-80
2023/12/15 10:08:42;;;;;;;21.67;9.55;;;;;;;;;;4948692;29;20183;-79
2023/12/15 10:11:12;;;;;;;25.33;9.77;;;;;;;;;;4946212;29;20043;-80
2023/12/15 10:13:41;;;;;;;21.08;9.77;;;;;;;;;;4948754;29;20043;-80
2023/12/15 10:16:11;;;;;;;25.85;10.48;;;;;;;;;;4964767;29;20031;-81
2023/12/15 10:18:37;;;;;;;23.25;10.07;;;;;;;;;;4932747;29;20066;-79
2023/12/15 10:21:04;;;;;;;24.05;10.52;;;;;;;;;;4947254;29;20118;-81
2023/12/15 10:23:31;;;;;;;26.08;9.98;;;;;;;;;;4948590;29;20054;-79
2023/12/15 10:25:58;;;;;;;23.88;11.82;;;;;;;;;;4950563;29;20090;-82
2023/12/15 10:28:24;;;;;;;27.70;11.35;;;;;;;;;;4982815;28;20066;-79
2023/12/15 10:30:53;;;;;;;24.98;10.55;;;;;;;;;;4982550;28;20039;-79
2023/12/15 10:33:19;;;;;;;28.30;11.57;;;;;;;;;;4953131;29;20036;-81
2023/12/15 10:35:48;;;;;;;25.52;10.68;;;;;;;;;;4958625;29;20632;-81
2023/12/15 10:38:16;;;;;;;26.38;11.00;;;;;;;;;;4929966;29;20035;-82
2023/12/15 10:40:43;;;;;;;24.25;10.55;;;;;;;;;;4930525;29;20046;-82
2023/12/15 10:43:09;;;;;;;26.42;12.40;;;;;;;;;;4947354;29;20035;-82
2023/12/15 10:45:36;;;;;;;30.35;13.13;;;;;;;;;;4934120;29;20038;-80
2023/12/15 10:48:02;;;;;;;32.83;12.73;;;;;;;;;;4949585;29;20031;-81
2023/12/15 10:50:29;;;;;;;27.30;12.07;;;;;;;;;;4946944;29;20023;-81
2023/12/15 10:52:57;;;;;;;28.02;12.00;;;;;;;;;;4944010;29;20444;-82
2023/12/15 10:55:25;;;;;;;23.90;11.13;;;;;;;;;;4935597;29;20043;-80
2023/12/15 10:57:51;;;;;;;28.45;11.70;;;;;;;;;;4952027;29;20055;-82
2023/12/15 11:00:17;;;;;;;28.50;12.00;;;;;;;;;;4952965;29;20389;-82
2023/12/15 11:02:44;;;;;;;29.83;11.38;;;;;;;;;;4936715;29;20082;-81
2023/12/15 11:05:11;;;;;;;30.80;11.30;;;;;;;;;;4954564;29;20103;-81
2023/12/15 11:07:38;;;;;;;25.52;10.60;;;;;;;;;;4937263;29;20055;-82
2023/12/15 11:10:04;;;;;;;20.70;10.70;;;;;;;;;;4952482;29;20102;-82
2023/12/15 11:12:45;;;;;;;26.65;11.35;;;;;;;;;;4940039;29;20472;-82
2023/12/15 11:15:20;;;;;;;32.72;13.43;;;;;;;;;;4956192;29;20043;-82
2023/12/15 11:17:57;;;;;;;28.63;10.02;;;;;;;;;;4952084;29;20032;-81
2023/12/15 11:20:25;;;;;;;29.93;12.17;;;;;;;;;;4948931;29;20126;-83
2023/12/15 11:22:53;;;;;;;29.10;11.37;;;;;;;;;;4978700;28;20102;-80
2023/12/15 11:25:20;;;;;;;26.60;10.60;;;;;;;;;;4955864;29;20273;-83
2023/12/15 11:28:07;;;;;;;28.58;11.25;;;;;;;;;;4939131;29;20038;-83
2023/12/15 11:30:40;;;;;;;26.70;10.63;;;;;;;;;;4937755;29;20062;-84
2023/12/15 11:33:22;;;;;;;24.83;10.73;;;;;;;;;;4952029;29;20043;-82
2023/12/15 11:35:52;;;;;;;28.63;11.43;;;;;;;;;;4949516;29;20034;-81
2023/12/15 11:38:22;;;;;;;25.77;11.15;;;;;;;;;;4966517;28;20114;-81
2023/12/15 11:40:48;;;;;;;27.10;11.40;;;;;;;;;;4967996;29;20047;-81
2023/12/15 11:43:15;;;;;;;27.38;11.50;;;;;;;;;;4955236;29;20046;-81
2023/12/15 11:45:41;;;;;;;28.55;11.13;;;;;;;;;;4957774;29;20039;-82
2023/12/15 11:48:11;;;;;;;26.30;11.02;;;;;;;;;;4957675;29;20094;-83
2023/12/15 11:50:44;;;;;;;26.67;10.48;;;;;;;;;;4974378;29;20042;-82
2023/12/15 11:53:10;;;;;;;25.48;10.68;;;;;;;;;;4959995;29;20038;-81
2023/12/15 11:55:38;;;;;;;25.08;10.65;;;;;;;;;;4957520;29;20039;-82
2023/12/15 11:58:03;;;;;;;24.38;9.65;;;;;;;;;;4959671;29;20091;-80
2023/12/15 12:00:30;;;;;;;26.73;10.57;;;;;;;;;;4945418;29;20031;-83
2023/12/15 12:02:56;;;;;;;29.80;11.00;;;;;;;;;;4962390;29;20110;-81
2023/12/15 12:05:22;;;;;;;23.92;10.10;;;;;;;;;;4978444;28;20035;-81
2023/12/15 12:07:48;;;;;;;26.10;10.23;;;;;;;;;;4960562;29;20043;-81
2023/12/15 12:10:14;;;;;;;23.48;10.05;;;;;;;;;;4945773;29;20035;-81
2023/12/15 12:12:40;;;;;;;24.23;9.95;;;;;;;;;;4961848;29;20042;-81
2023/12/15 12:15:07;;;;;;;24.85;10.82;;;;;;;;;;4945053;29;20027;-82
2023/12/15 12:17:34;;;;;;;21.77;10.20;;;;;;;;;;4945276;29;20035;-82
2023/12/15 12:20:10;;;;;;;22.40;10.13;;;;;;;;;;4934753;29;20031;-81
2023/12/15 12:22:39;;;;;;;22.35;10.27;;;;;;;;;;4977595;29;20027;-83
2023/12/15 12:25:05;;;;;;;;;;;;;;;;;;4961079;29;20031;-83
2023/12/15 12:27:32;;;;;;;23.83;8.68;;;;;;;;;;4938937;29;19917;-82
2023/12/15 12:29:59;;;;;;;23.55;8.85;;;;;;;;;;4963634;29;20106;-81
2023/12/15 12:32:25;;;;;;;20.05;9.02;;;;;;;;;;4947090;29;20484;-81
2023/12/15 12:34:53;;;;;;;25.55;9.98;;;;;;;;;;4962619;29;20032;-80
2023/12/15 12:37:19;;;;;;;24.10;10.18;;;;;;;;;;4963806;28;20058;-81
2023/12/15 12:39:45;;;;;;;26.40;9.75;;;;;;;;;;4948353;29;20028;-82
2023/12/15 12:42:11;;;;;;;23.40;9.75;;;;;;;;;;4947612;29;20051;-81
2023/12/15 12:44:37;;;;;;;22.85;9.82;;;;;;;;;;4931586;29;20039;-79
2023/12/15 12:47:03;;;;;;;23.20;10.35;;;;;;;;;;4932450;29;20043;-80
2023/12/15 12:49:29;;;;;;;23.83;9.93;;;;;;;;;;4930600;29;20038;-81
2023/12/15 12:51:57;;;;;;;25.00;10.15;;;;;;;;;;4928405;29;20484;-81
2023/12/15 12:54:26;;;;;;;23.23;9.40;;;;;;;;;;4940756;29;20039;-80
2023/12/15 12:56:52;;;;;;;27.80;9.93;;;;;;;;;;4945237;29;20043;-82
2023/12/15 12:59:20;;;;;;;25.42;10.55;;;;;;;;;;4944941;29;20108;-81
2023/12/15 13:01:46;;;;;;;23.70;9.18;;;;;;;;;;4944599;29;20070;-81
2023/12/15 13:04:14;;;;;;;18.45;8.25;;;;;;;;;;4931344;29;20031;-81
2023/12/15 13:06:40;;;;;;;22.45;10.00;;;;;;;;;;4928772;29;20050;-81
2023/12/15 13:09:06;;;;;;;23.60;10.57;;;;;;;;;;4944160;29;20043;-78
2023/12/15 13:11:31;;;;;;;28.75;11.00;;;;;;;;;;4960378;29;20031;-81
2023/12/15 13:13:57;;;;;;;20.33;9.73;;;;;;;;;;4945789;29;20043;-80
2023/12/15 13:16:25;;;;;;;27.10;10.13;;;;;;;;;;4937992;29;20039;-80
2023/12/15 13:18:51;;;;;;;26.27;11.75;;;;;;;;;;4933626;29;20036;-80
2023/12/15 13:21:17;;;;;;;25.15;10.85;;;;;;;;;;4934913;29;20234;-78
2023/12/15 13:23:42;;;;;;;24.40;10.32;;;;;;;;;;4976136;28;20034;-81
2023/12/15 13:26:08;;;;;;;25.75;9.75;;;;;;;;;;4930419;29;20059;-81
2023/12/15 13:28:36;;;;;;;24.42;11.00;;;;;;;;;;4944857;29;20038;-80
2023/12/15 13:31:04;;;;;;;22.70;10.35;;;;;;;;;;4960033;29;20039;-81
2023/12/15 13:33:29;;;;;;;32.83;11.30;;;;;;;;;;4960719;29;20404;-80
2023/12/15 13:35:55;;;;;;;24.17;10.30;;;;;;;;;;4959652;28;20031;-80
2023/12/15 13:38:21;;;;;;;26.52;10.98;;;;;;;;;;4961243;28;20095;-79
2023/12/15 13:40:46;;;;;;;26.40;10.40;;;;;;;;;;4960796;28;20031;-79
2023/12/15 13:43:12;;;;;;;22.38;9.77;;;;;;;;;;4929511;29;20078;-81
2023/12/15 13:45:38;;;;;;;19.98;9.48;;;;;;;;;;4960692;28;20035;-80
2023/12/15 13:48:04;;;;;;;23.83;9.48;;;;;;;;;;4960224;28;20039;-83
2023/12/15 13:50:31;;;;;;;22.25;8.98;;;;;;;;;;4962557;29;20055;-80
2023/12/15 13:52:57;;;;;;;28.83;10.60;;;;;;;;;;4960005;29;20055;-81
2023/12/15 13:55:23;;;;;;;24.38;10.38;;;;;;;;;;4978441;28;20047;-80
2023/12/15 13:57:50;;;;;;;20.45;9.93;;;;;;;;;;4982181;28;20099;-80
2023/12/15 14:00:17;;;;;;;22.60;9.85;;;;;;;;;;4967222;28;20035;-81
2023/12/15 14:02:42;;;;;;;19.75;9.40;;;;;;;;;;4951618;29;20042;-81
2023/12/15 14:05:09;;;;;;;18.60;9.32;;;;;;;;;;4951178;29;20039;-81
2023/12/15 14:07:34;;;;;;;22.88;9.55;;;;;;;;;;4935375;29;20042;-82
2023/12/15 14:10:00;;;;;;;22.67;9.50;;;;;;;;;;4967570;28;20035;-82
2023/12/15 14:12:27;;;;;;;25.02;9.95;;;;;;;;;;4966723;28;20035;-82
2023/12/15 14:14:52;;;;;;;18.60;9.00;;;;;;;;;;4934236;29;20472;-80
2023/12/15 14:17:19;;;;;;;24.40;9.38;;;;;;;;;;4966377;28;20051;-80
2023/12/15 14:19:46;;;;;;;24.50;10.10;;;;;;;;;;4948366;29;20035;-81
2023/12/15 14:22:14;;;;;;;19.67;9.02;;;;;;;;;;4933828;29;20035;-83